sensor_id;sensor_type;location;lat;lon;timestamp;P1;durP1;ratioP1;P2;durP2;ratioP2
57778;SDS011;43608;49.486;9.640;2024-02-26T00:00:03;3.45;;;2.50;;
57778;SDS011;43608;49.486;9.640;2024-02-26T00:00:35;3.72;;;2.67;;
57778;SDS011;43608;49.486;9.640;2024-02-26T00:01:05;4.07;;;2.65;;
57778;SDS011;43608;49.486;9.640;2024-02-26T00:01:35;2.95;;;2.13;;
57778;SDS011;43608;49.486;9.640;2024-02-26T00:02:06;3.70;;;2.50;;
57778;SDS011;43608;49.486;9.640;2024-02-26T00:02:37;3.78;;;2.50;;
57778;SDS011;43608;49.486;9.640;2024-02-26T00:03:07;3.22;;;2.20;;
57778;SDS011;43608;49.486;9.640;2024-02-26T00:03:38;4.13;;;2.50;;
57778;SDS011;43608;49.486;9.640;2024-02-26T00:04:12;3.50;;;2.50;;
57778;SDS011;43608;49.486;9.640;2024-02-26T00:04:42;3.67;;;2.50;;
57778;SDS011;43608;49.486;9.640;2024-02-26T00:05:13;3.85;;;2.30;;
57778;SDS011;43608;49.486;9.640;2024-02-26T00:05:43;3.30;;;2.47;;
57778;SDS011;43608;49.486;9.640;2024-02-26T00:06:13;3.03;;;2.30;;
57778;SDS011;43608;49.486;9.640;2024-02-26T00:06:44;2.83;;;2.20;;
57778;SDS011;43608;49.486;9.640;2024-02-26T00:07:14;2.92;;;2.25;;
57778;SDS011;43608;49.486;9.640;2024-02-26T00:07:44;2.50;;;2.10;;
57778;SDS011;43608;49.486;9.640;2024-02-26T00:08:15;3.35;;;2.40;;
57778;SDS011;43608;49.486;9.640;2024-02-26T00:08:45;2.78;;;2.03;;
57778;SDS011;43608;49.486;9.640;2024-02-26T00:09:15;3.60;;;2.22;;
57778;SDS011;43608;49.486;9.640;2024-02-26T00:09:46;3.70;;;2.33;;
57778;SDS011;43608;49.486;9.640;2024-02-26T00:10:16;2.85;;;2.22;;
57778;SDS011;43608;49.486;9.640;2024-02-26T00:10:46;3.65;;;2.60;;
57778;SDS011;43608;49.486;9.640;2024-02-26T00:11:17;3.15;;;2.35;;
57778;SDS011;43608;49.486;9.640;2024-02-26T00:11:47;3.03;;;2.20;;
57778;SDS011;43608;49.486;9.640;2024-02-26T00:12:17;2.90;;;2.20;;
57778;SDS011;43608;49.486;9.640;2024-02-26T00:12:48;3.35;;;2.45;;
57778;SDS011;43608;49.486;9.640;2024-02-26T00:13:18;3.03;;;2.28;;
57778;SDS011;43608;49.486;9.640;2024-02-26T00:13:50;3.40;;;2.33;;
57778;SDS011;43608;49.486;9.640;2024-02-26T00:14:20;3.83;;;2.50;;
57778;SDS011;43608;49.486;9.640;2024-02-26T00:14:50;3.28;;;2.40;;
57778;SDS011;43608;49.486;9.640;2024-02-26T00:15:22;3.35;;;2.20;;
57778;SDS011;43608;49.486;9.640;2024-02-26T00:15:53;3.30;;;2.22;;
57778;SDS011;43608;49.486;9.640;2024-02-26T00:16:23;3.60;;;2.50;;
57778;SDS011;43608;49.486;9.640;2024-02-26T00:16:54;3.30;;;2.38;;
57778;SDS011;43608;49.486;9.640;2024-02-26T00:17:24;3.03;;;2.20;;
57778;SDS011;43608;49.486;9.640;2024-02-26T00:17:54;3.55;;;2.42;;
57778;SDS011;43608;49.486;9.640;2024-02-26T00:18:25;3.67;;;2.58;;
57778;SDS011;43608;49.486;9.640;2024-02-26T00:18:55;3.47;;;2.50;;
57778;SDS011;43608;49.486;9.640;2024-02-26T00:19:25;4.30;;;2.65;;
57778;SDS011;43608;49.486;9.640;2024-02-26T00:19:56;3.13;;;2.15;;
57778;SDS011;43608;49.486;9.640;2024-02-26T00:20:26;4.53;;;2.60;;
57778;SDS011;43608;49.486;9.640;2024-02-26T00:20:57;4.25;;;2.53;;
57778;SDS011;43608;49.486;9.640;2024-02-26T00:21:27;3.90;;;2.47;;
57778;SDS011;43608;49.486;9.640;2024-02-26T00:21:58;4.18;;;2.42;;
57778;SDS011;43608;49.486;9.640;2024-02-26T00:22:28;3.67;;;2.60;;
57778;SDS011;43608;49.486;9.640;2024-02-26T00:22:59;3.15;;;2.33;;
57778;SDS011;43608;49.486;9.640;2024-02-26T00:23:29;2.70;;;2.22;;
57778;SDS011;43608;49.486;9.640;2024-02-26T00:23:59;3.63;;;2.63;;
57778;SDS011;43608;49.486;9.640;2024-02-26T00:24:30;4.00;;;2.67;;
57778;SDS011;43608;49.486;9.640;2024-02-26T00:25:00;4.15;;;2.90;;
57778;SDS011;43608;49.486;9.640;2024-02-26T00:25:30;5.00;;;2.75;;
57778;SDS011;43608;49.486;9.640;2024-02-26T00:26:01;3.60;;;2.70;;
57778;SDS011;43608;49.486;9.640;2024-02-26T00:26:31;2.78;;;2.22;;
57778;SDS011;43608;49.486;9.640;2024-02-26T00:27:01;4.32;;;2.83;;
57778;SDS011;43608;49.486;9.640;2024-02-26T00:27:32;4.47;;;2.70;;
57778;SDS011;43608;49.486;9.640;2024-02-26T00:28:02;4.10;;;2.80;;
57778;SDS011;43608;49.486;9.640;2024-02-26T00:28:34;3.78;;;2.50;;
57778;SDS011;43608;49.486;9.640;2024-02-26T00:29:04;4.65;;;2.78;;
57778;SDS011;43608;49.486;9.640;2024-02-26T00:29:35;3.42;;;2.40;;
57778;SDS011;43608;49.486;9.640;2024-02-26T00:30:06;4.13;;;2.67;;
57778;SDS011;43608;49.486;9.640;2024-02-26T00:30:36;4.28;;;2.42;;
57778;SDS011;43608;49.486;9.640;2024-02-26T00:31:07;3.20;;;2.30;;
57778;SDS011;43608;49.486;9.640;2024-02-26T00:31:41;3.95;;;2.80;;
57778;SDS011;43608;49.486;9.640;2024-02-26T00:32:12;3.75;;;2.33;;
57778;SDS011;43608;49.486;9.640;2024-02-26T00:32:42;4.82;;;2.55;;
57778;SDS011;43608;49.486;9.640;2024-02-26T00:33:14;3.67;;;2.50;;
57778;SDS011;43608;49.486;9.640;2024-02-26T00:33:46;4.35;;;2.63;;
57778;SDS011;43608;49.486;9.640;2024-02-26T00:34:17;3.70;;;2.38;;
57778;SDS011;43608;49.486;9.640;2024-02-26T00:34:47;3.65;;;2.60;;
57778;SDS011;43608;49.486;9.640;2024-02-26T00:35:17;3.97;;;2.55;;
57778;SDS011;43608;49.486;9.640;2024-02-26T00:35:50;3.35;;;2.40;;
57778;SDS011;43608;49.486;9.640;2024-02-26T00:36:20;3.88;;;2.65;;
57778;SDS011;43608;49.486;9.640;2024-02-26T00:36:51;4.13;;;2.80;;
57778;SDS011;43608;49.486;9.640;2024-02-26T00:37:21;4.20;;;2.58;;
57778;SDS011;43608;49.486;9.640;2024-02-26T00:37:51;3.83;;;2.58;;
57778;SDS011;43608;49.486;9.640;2024-02-26T00:38:22;4.57;;;2.67;;
57778;SDS011;43608;49.486;9.640;2024-02-26T00:38:52;4.10;;;2.80;;
57778;SDS011;43608;49.486;9.640;2024-02-26T00:39:22;4.18;;;2.72;;
57778;SDS011;43608;49.486;9.640;2024-02-26T00:39:53;3.97;;;2.60;;
57778;SDS011;43608;49.486;9.640;2024-02-26T00:40:24;5.88;;;3.03;;
57778;SDS011;43608;49.486;9.640;2024-02-26T00:40:54;4.50;;;3.10;;
57778;SDS011;43608;49.486;9.640;2024-02-26T00:41:24;4.22;;;3.10;;
57778;SDS011;43608;49.486;9.640;2024-02-26T00:41:55;5.57;;;3.40;;
57778;SDS011;43608;49.486;9.640;2024-02-26T00:42:25;4.53;;;3.10;;
57778;SDS011;43608;49.486;9.640;2024-02-26T00:42:55;5.63;;;3.25;;
57778;SDS011;43608;49.486;9.640;2024-02-26T00:43:26;5.03;;;3.25;;
57778;SDS011;43608;49.486;9.640;2024-02-26T00:43:56;5.25;;;3.70;;
57778;SDS011;43608;49.486;9.640;2024-02-26T00:44:26;6.43;;;3.60;;
57778;SDS011;43608;49.486;9.640;2024-02-26T00:44:57;5.97;;;3.50;;
57778;SDS011;43608;49.486;9.640;2024-02-26T00:45:27;5.38;;;3.90;;
57778;SDS011;43608;49.486;9.640;2024-02-26T00:45:57;6.05;;;4.00;;
57778;SDS011;43608;49.486;9.640;2024-02-26T00:46:28;6.07;;;3.90;;
57778;SDS011;43608;49.486;9.640;2024-02-26T00:46:58;5.82;;;3.83;;
57778;SDS011;43608;49.486;9.640;2024-02-26T00:47:28;5.40;;;3.63;;
57778;SDS011;43608;49.486;9.640;2024-02-26T00:47:59;5.50;;;3.40;;
57778;SDS011;43608;49.486;9.640;2024-02-26T00:48:35;5.30;;;3.50;;
57778;SDS011;43608;49.486;9.640;2024-02-26T00:49:05;5.78;;;3.45;;
57778;SDS011;43608;49.486;9.640;2024-02-26T00:49:36;6.05;;;3.60;;
57778;SDS011;43608;49.486;9.640;2024-02-26T00:50:07;5.05;;;3.50;;
57778;SDS011;43608;49.486;9.640;2024-02-26T00:50:38;5.45;;;3.50;;
57778;SDS011;43608;49.486;9.640;2024-02-26T00:51:08;6.22;;;3.78;;
57778;SDS011;43608;49.486;9.640;2024-02-26T00:51:39;6.57;;;3.95;;
57778;SDS011;43608;49.486;9.640;2024-02-26T00:52:09;5.53;;;3.85;;
57778;SDS011;43608;49.486;9.640;2024-02-26T00:52:39;5.65;;;3.80;;
57778;SDS011;43608;49.486;9.640;2024-02-26T00:53:10;5.90;;;3.80;;
57778;SDS011;43608;49.486;9.640;2024-02-26T00:53:40;4.93;;;3.30;;
57778;SDS011;43608;49.486;9.640;2024-02-26T00:54:11;5.85;;;3.70;;
57778;SDS011;43608;49.486;9.640;2024-02-26T00:54:41;5.00;;;3.45;;
57778;SDS011;43608;49.486;9.640;2024-02-26T00:55:11;4.63;;;3.30;;
57778;SDS011;43608;49.486;9.640;2024-02-26T00:55:42;4.60;;;3.47;;
57778;SDS011;43608;49.486;9.640;2024-02-26T00:56:12;4.20;;;3.00;;
57778;SDS011;43608;49.486;9.640;2024-02-26T00:56:42;5.07;;;3.33;;
57778;SDS011;43608;49.486;9.640;2024-02-26T00:57:13;4.57;;;3.10;;
57778;SDS011;43608;49.486;9.640;2024-02-26T00:57:43;4.82;;;3.38;;
57778;SDS011;43608;49.486;9.640;2024-02-26T00:58:14;5.15;;;3.50;;
57778;SDS011;43608;49.486;9.640;2024-02-26T00:58:44;5.10;;;3.33;;
57778;SDS011;43608;49.486;9.640;2024-02-26T00:59:15;5.50;;;3.22;;
57778;SDS011;43608;49.486;9.640;2024-02-26T00:59:45;5.85;;;3.30;;
57778;SDS011;43608;49.486;9.640;2024-02-26T01:00:15;4.80;;;3.28;;
57778;SDS011;43608;49.486;9.640;2024-02-26T01:00:46;6.13;;;3.50;;
57778;SDS011;43608;49.486;9.640;2024-02-26T01:01:17;5.05;;;3.25;;
57778;SDS011;43608;49.486;9.640;2024-02-26T01:01:47;5.20;;;3.60;;
57778;SDS011;43608;49.486;9.640;2024-02-26T01:02:17;4.68;;;3.33;;
57778;SDS011;43608;49.486;9.640;2024-02-26T01:02:50;5.05;;;3.35;;
57778;SDS011;43608;49.486;9.640;2024-02-26T01:03:21;5.38;;;3.33;;
57778;SDS011;43608;49.486;9.640;2024-02-26T01:03:51;4.65;;;3.15;;
57778;SDS011;43608;49.486;9.640;2024-02-26T01:04:21;4.55;;;3.30;;
57778;SDS011;43608;49.486;9.640;2024-02-26T01:04:52;5.25;;;3.30;;
57778;SDS011;43608;49.486;9.640;2024-02-26T01:05:22;5.35;;;3.17;;
57778;SDS011;43608;49.486;9.640;2024-02-26T01:05:53;4.85;;;3.40;;
57778;SDS011;43608;49.486;9.640;2024-02-26T01:06:23;4.60;;;3.20;;
57778;SDS011;43608;49.486;9.640;2024-02-26T01:06:53;4.90;;;3.45;;
57778;SDS011;43608;49.486;9.640;2024-02-26T01:07:24;4.90;;;3.45;;
57778;SDS011;43608;49.486;9.640;2024-02-26T01:07:54;4.45;;;3.20;;
57778;SDS011;43608;49.486;9.640;2024-02-26T01:08:24;4.35;;;3.13;;
57778;SDS011;43608;49.486;9.640;2024-02-26T01:08:55;4.90;;;3.10;;
57778;SDS011;43608;49.486;9.640;2024-02-26T01:09:25;4.57;;;3.17;;
57778;SDS011;43608;49.486;9.640;2024-02-26T01:09:55;5.25;;;3.40;;
57778;SDS011;43608;49.486;9.640;2024-02-26T01:10:26;6.22;;;3.55;;
57778;SDS011;43608;49.486;9.640;2024-02-26T01:10:56;4.95;;;3.38;;
57778;SDS011;43608;49.486;9.640;2024-02-26T01:11:26;4.90;;;3.35;;
57778;SDS011;43608;49.486;9.640;2024-02-26T01:11:56;4.80;;;3.28;;
57778;SDS011;43608;49.486;9.640;2024-02-26T01:12:27;5.28;;;3.55;;
57778;SDS011;43608;49.486;9.640;2024-02-26T01:12:57;5.63;;;3.38;;
57778;SDS011;43608;49.486;9.640;2024-02-26T01:13:28;5.38;;;3.45;;
57778;SDS011;43608;49.486;9.640;2024-02-26T01:13:59;4.80;;;3.40;;
57778;SDS011;43608;49.486;9.640;2024-02-26T01:14:29;5.15;;;3.38;;
57778;SDS011;43608;49.486;9.640;2024-02-26T01:15:00;5.38;;;3.40;;
57778;SDS011;43608;49.486;9.640;2024-02-26T01:15:32;5.55;;;3.83;;
57778;SDS011;43608;49.486;9.640;2024-02-26T01:16:03;5.97;;;3.50;;
57778;SDS011;43608;49.486;9.640;2024-02-26T01:16:34;4.90;;;3.47;;
57778;SDS011;43608;49.486;9.640;2024-02-26T01:17:04;6.10;;;3.67;;
57778;SDS011;43608;49.486;9.640;2024-02-26T01:17:34;5.75;;;3.55;;
57778;SDS011;43608;49.486;9.640;2024-02-26T01:18:05;5.75;;;3.90;;
57778;SDS011;43608;49.486;9.640;2024-02-26T01:18:35;5.55;;;3.70;;
57778;SDS011;43608;49.486;9.640;2024-02-26T01:19:05;5.15;;;3.60;;
57778;SDS011;43608;49.486;9.640;2024-02-26T01:19:36;5.20;;;3.30;;
57778;SDS011;43608;49.486;9.640;2024-02-26T01:20:06;6.07;;;3.50;;
57778;SDS011;43608;49.486;9.640;2024-02-26T01:20:38;5.50;;;3.58;;
57778;SDS011;43608;49.486;9.640;2024-02-26T01:21:09;5.18;;;3.55;;
57778;SDS011;43608;49.486;9.640;2024-02-26T01:21:39;5.70;;;3.63;;
57778;SDS011;43608;49.486;9.640;2024-02-26T01:22:09;5.18;;;3.50;;
57778;SDS011;43608;49.486;9.640;2024-02-26T01:22:40;5.75;;;3.58;;
57778;SDS011;43608;49.486;9.640;2024-02-26T01:23:10;5.90;;;3.53;;
57778;SDS011;43608;49.486;9.640;2024-02-26T01:23:41;4.75;;;3.10;;
57778;SDS011;43608;49.486;9.640;2024-02-26T01:24:12;5.20;;;3.47;;
57778;SDS011;43608;49.486;9.640;2024-02-26T01:24:42;5.47;;;3.50;;
57778;SDS011;43608;49.486;9.640;2024-02-26T01:25:13;5.38;;;3.53;;
57778;SDS011;43608;49.486;9.640;2024-02-26T01:25:44;5.28;;;3.50;;
57778;SDS011;43608;49.486;9.640;2024-02-26T01:26:14;4.53;;;3.30;;
57778;SDS011;43608;49.486;9.640;2024-02-26T01:26:44;5.03;;;3.53;;
57778;SDS011;43608;49.486;9.640;2024-02-26T01:27:15;5.50;;;3.53;;
57778;SDS011;43608;49.486;9.640;2024-02-26T01:27:45;4.65;;;3.40;;
57778;SDS011;43608;49.486;9.640;2024-02-26T01:28:16;4.50;;;3.20;;
57778;SDS011;43608;49.486;9.640;2024-02-26T01:28:46;5.97;;;3.60;;
57778;SDS011;43608;49.486;9.640;2024-02-26T01:29:16;6.13;;;3.47;;
57778;SDS011;43608;49.486;9.640;2024-02-26T01:29:47;5.88;;;3.88;;
57778;SDS011;43608;49.486;9.640;2024-02-26T01:30:17;5.10;;;3.50;;
57778;SDS011;43608;49.486;9.640;2024-02-26T01:30:48;5.72;;;3.63;;
57778;SDS011;43608;49.486;9.640;2024-02-26T01:31:18;4.93;;;3.40;;
57778;SDS011;43608;49.486;9.640;2024-02-26T01:31:48;5.57;;;3.50;;
57778;SDS011;43608;49.486;9.640;2024-02-26T01:32:19;5.22;;;3.60;;
57778;SDS011;43608;49.486;9.640;2024-02-26T01:32:49;5.20;;;3.70;;
57778;SDS011;43608;49.486;9.640;2024-02-26T01:33:20;5.40;;;3.42;;
57778;SDS011;43608;49.486;9.640;2024-02-26T01:33:50;5.63;;;3.67;;
57778;SDS011;43608;49.486;9.640;2024-02-26T01:34:20;4.68;;;3.42;;
57778;SDS011;43608;49.486;9.640;2024-02-26T01:34:51;5.65;;;3.65;;
57778;SDS011;43608;49.486;9.640;2024-02-26T01:35:25;6.75;;;3.70;;
57778;SDS011;43608;49.486;9.640;2024-02-26T01:35:56;5.65;;;3.50;;
57778;SDS011;43608;49.486;9.640;2024-02-26T01:36:26;4.70;;;3.30;;
57778;SDS011;43608;49.486;9.640;2024-02-26T01:36:57;4.80;;;3.58;;
57778;SDS011;43608;49.486;9.640;2024-02-26T01:37:27;5.25;;;3.53;;
57778;SDS011;43608;49.486;9.640;2024-02-26T01:37:59;6.95;;;4.13;;
57778;SDS011;43608;49.486;9.640;2024-02-26T01:38:30;5.40;;;3.42;;
57778;SDS011;43608;49.486;9.640;2024-02-26T01:39:00;5.15;;;3.50;;
57778;SDS011;43608;49.486;9.640;2024-02-26T01:39:30;5.07;;;3.38;;
57778;SDS011;43608;49.486;9.640;2024-02-26T01:40:01;5.35;;;3.55;;
57778;SDS011;43608;49.486;9.640;2024-02-26T01:40:34;5.07;;;3.42;;
57778;SDS011;43608;49.486;9.640;2024-02-26T01:41:04;5.90;;;3.67;;
57778;SDS011;43608;49.486;9.640;2024-02-26T01:41:34;5.00;;;3.53;;
57778;SDS011;43608;49.486;9.640;2024-02-26T01:42:05;5.43;;;3.60;;
57778;SDS011;43608;49.486;9.640;2024-02-26T01:42:37;5.40;;;3.70;;
57778;SDS011;43608;49.486;9.640;2024-02-26T01:43:09;5.45;;;3.60;;
57778;SDS011;43608;49.486;9.640;2024-02-26T01:43:39;6.57;;;3.75;;
57778;SDS011;43608;49.486;9.640;2024-02-26T01:44:11;4.88;;;3.25;;
57778;SDS011;43608;49.486;9.640;2024-02-26T01:44:43;5.22;;;3.35;;
57778;SDS011;43608;49.486;9.640;2024-02-26T01:45:14;5.57;;;3.40;;
57778;SDS011;43608;49.486;9.640;2024-02-26T01:45:51;5.32;;;3.45;;
57778;SDS011;43608;49.486;9.640;2024-02-26T01:46:21;6.30;;;3.55;;
57778;SDS011;43608;49.486;9.640;2024-02-26T01:46:52;6.63;;;3.90;;
57778;SDS011;43608;49.486;9.640;2024-02-26T01:47:23;5.38;;;3.53;;
57778;SDS011;43608;49.486;9.640;2024-02-26T01:47:54;5.20;;;3.35;;
57778;SDS011;43608;49.486;9.640;2024-02-26T01:48:25;6.32;;;3.72;;
57778;SDS011;43608;49.486;9.640;2024-02-26T01:48:55;5.60;;;3.45;;
57778;SDS011;43608;49.486;9.640;2024-02-26T01:49:26;5.55;;;3.55;;
57778;SDS011;43608;49.486;9.640;2024-02-26T01:49:58;5.70;;;3.80;;
57778;SDS011;43608;49.486;9.640;2024-02-26T01:50:28;5.78;;;3.88;;
57778;SDS011;43608;49.486;9.640;2024-02-26T01:50:59;5.20;;;3.70;;
57778;SDS011;43608;49.486;9.640;2024-02-26T01:51:29;5.68;;;3.85;;
57778;SDS011;43608;49.486;9.640;2024-02-26T01:52:01;5.65;;;3.53;;
57778;SDS011;43608;49.486;9.640;2024-02-26T01:52:32;6.05;;;3.63;;
57778;SDS011;43608;49.486;9.640;2024-02-26T01:53:03;5.13;;;3.78;;
57778;SDS011;43608;49.486;9.640;2024-02-26T01:53:34;5.93;;;3.80;;
57778;SDS011;43608;49.486;9.640;2024-02-26T01:54:05;5.60;;;3.50;;
57778;SDS011;43608;49.486;9.640;2024-02-26T01:54:38;5.80;;;3.80;;
57778;SDS011;43608;49.486;9.640;2024-02-26T01:55:10;5.70;;;3.70;;
57778;SDS011;43608;49.486;9.640;2024-02-26T01:55:41;6.03;;;3.92;;
57778;SDS011;43608;49.486;9.640;2024-02-26T01:56:12;5.85;;;3.80;;
57778;SDS011;43608;49.486;9.640;2024-02-26T01:56:44;4.93;;;3.33;;
57778;SDS011;43608;49.486;9.640;2024-02-26T01:57:14;5.70;;;3.80;;
57778;SDS011;43608;49.486;9.640;2024-02-26T01:57:45;6.15;;;3.78;;
57778;SDS011;43608;49.486;9.640;2024-02-26T01:58:17;5.25;;;3.70;;
57778;SDS011;43608;49.486;9.640;2024-02-26T01:58:48;5.78;;;3.53;;
57778;SDS011;43608;49.486;9.640;2024-02-26T01:59:19;6.20;;;3.78;;
57778;SDS011;43608;49.486;9.640;2024-02-26T01:59:50;5.35;;;3.67;;
57778;SDS011;43608;49.486;9.640;2024-02-26T02:00:20;6.20;;;4.10;;
57778;SDS011;43608;49.486;9.640;2024-02-26T02:00:52;5.13;;;3.53;;
57778;SDS011;43608;49.486;9.640;2024-02-26T02:01:24;6.05;;;3.75;;
57778;SDS011;43608;49.486;9.640;2024-02-26T02:01:57;5.38;;;3.67;;
57778;SDS011;43608;49.486;9.640;2024-02-26T02:02:31;5.80;;;3.85;;
57778;SDS011;43608;49.486;9.640;2024-02-26T02:03:02;5.38;;;3.85;;
57778;SDS011;43608;49.486;9.640;2024-02-26T02:03:33;5.63;;;3.75;;
57778;SDS011;43608;49.486;9.640;2024-02-26T02:04:04;5.38;;;3.80;;
57778;SDS011;43608;49.486;9.640;2024-02-26T02:04:35;5.80;;;3.90;;
57778;SDS011;43608;49.486;9.640;2024-02-26T02:05:06;5.57;;;3.70;;
57778;SDS011;43608;49.486;9.640;2024-02-26T02:05:37;5.70;;;3.90;;
57778;SDS011;43608;49.486;9.640;2024-02-26T02:06:11;5.68;;;3.83;;
57778;SDS011;43608;49.486;9.640;2024-02-26T02:06:42;5.65;;;3.95;;
57778;SDS011;43608;49.486;9.640;2024-02-26T02:07:15;5.90;;;3.88;;
57778;SDS011;43608;49.486;9.640;2024-02-26T02:07:45;5.47;;;3.72;;
57778;SDS011;43608;49.486;9.640;2024-02-26T02:08:18;5.38;;;3.85;;
57778;SDS011;43608;49.486;9.640;2024-02-26T02:08:49;5.95;;;3.63;;
57778;SDS011;43608;49.486;9.640;2024-02-26T02:09:19;5.53;;;3.78;;
57778;SDS011;43608;49.486;9.640;2024-02-26T02:09:50;4.82;;;3.40;;
57778;SDS011;43608;49.486;9.640;2024-02-26T02:10:20;5.13;;;3.60;;
57778;SDS011;43608;49.486;9.640;2024-02-26T02:10:55;5.75;;;3.58;;
57778;SDS011;43608;49.486;9.640;2024-02-26T02:11:26;6.13;;;3.92;;
57778;SDS011;43608;49.486;9.640;2024-02-26T02:11:57;6.07;;;3.83;;
57778;SDS011;43608;49.486;9.640;2024-02-26T02:12:28;6.05;;;3.80;;
57778;SDS011;43608;49.486;9.640;2024-02-26T02:12:58;7.88;;;4.32;;
57778;SDS011;43608;49.486;9.640;2024-02-26T02:13:29;6.15;;;4.18;;
57778;SDS011;43608;49.486;9.640;2024-02-26T02:13:59;8.15;;;4.03;;
57778;SDS011;43608;49.486;9.640;2024-02-26T02:14:30;6.43;;;4.20;;
57778;SDS011;43608;49.486;9.640;2024-02-26T02:15:00;6.10;;;4.10;;
57778;SDS011;43608;49.486;9.640;2024-02-26T02:15:31;6.75;;;4.50;;
57778;SDS011;43608;49.486;9.640;2024-02-26T02:16:02;6.75;;;4.40;;
57778;SDS011;43608;49.486;9.640;2024-02-26T02:16:32;5.53;;;3.83;;
57778;SDS011;43608;49.486;9.640;2024-02-26T02:17:03;6.55;;;4.38;;
57778;SDS011;43608;49.486;9.640;2024-02-26T02:17:34;6.90;;;4.20;;
57778;SDS011;43608;49.486;9.640;2024-02-26T02:18:04;6.85;;;4.10;;
57778;SDS011;43608;49.486;9.640;2024-02-26T02:18:35;7.55;;;4.53;;
57778;SDS011;43608;49.486;9.640;2024-02-26T02:19:06;5.68;;;3.75;;
57778;SDS011;43608;49.486;9.640;2024-02-26T02:19:36;5.70;;;3.85;;
57778;SDS011;43608;49.486;9.640;2024-02-26T02:20:09;6.22;;;4.07;;
57778;SDS011;43608;49.486;9.640;2024-02-26T02:20:45;5.35;;;3.50;;
57778;SDS011;43608;49.486;9.640;2024-02-26T02:21:15;6.47;;;4.00;;
57778;SDS011;43608;49.486;9.640;2024-02-26T02:21:45;6.32;;;4.20;;
57778;SDS011;43608;49.486;9.640;2024-02-26T02:22:16;6.88;;;4.40;;
57778;SDS011;43608;49.486;9.640;2024-02-26T02:22:46;7.40;;;4.10;;
57778;SDS011;43608;49.486;9.640;2024-02-26T02:23:16;7.57;;;4.07;;
57778;SDS011;43608;49.486;9.640;2024-02-26T02:23:47;6.13;;;4.00;;
57778;SDS011;43608;49.486;9.640;2024-02-26T02:24:18;7.43;;;4.28;;
57778;SDS011;43608;49.486;9.640;2024-02-26T02:24:49;5.82;;;3.85;;
57778;SDS011;43608;49.486;9.640;2024-02-26T02:25:21;7.63;;;4.45;;
57778;SDS011;43608;49.486;9.640;2024-02-26T02:25:52;8.23;;;4.53;;
57778;SDS011;43608;49.486;9.640;2024-02-26T02:26:23;7.22;;;4.22;;
57778;SDS011;43608;49.486;9.640;2024-02-26T02:26:53;6.70;;;4.05;;
57778;SDS011;43608;49.486;9.640;2024-02-26T02:27:25;6.63;;;4.03;;
57778;SDS011;43608;49.486;9.640;2024-02-26T02:27:57;6.43;;;4.25;;
57778;SDS011;43608;49.486;9.640;2024-02-26T02:28:27;4.72;;;3.40;;
57778;SDS011;43608;49.486;9.640;2024-02-26T02:28:58;5.65;;;3.75;;
57778;SDS011;43608;49.486;9.640;2024-02-26T02:29:28;6.45;;;4.20;;
57778;SDS011;43608;49.486;9.640;2024-02-26T02:29:59;5.85;;;3.65;;
57778;SDS011;43608;49.486;9.640;2024-02-26T02:30:30;7.10;;;3.85;;
57778;SDS011;43608;49.486;9.640;2024-02-26T02:31:03;6.22;;;3.67;;
57778;SDS011;43608;49.486;9.640;2024-02-26T02:31:33;6.15;;;3.42;;
57778;SDS011;43608;49.486;9.640;2024-02-26T02:32:04;6.40;;;4.07;;
57778;SDS011;43608;49.486;9.640;2024-02-26T02:32:35;5.68;;;3.80;;
57778;SDS011;43608;49.486;9.640;2024-02-26T02:33:08;6.63;;;3.67;;
57778;SDS011;43608;49.486;9.640;2024-02-26T02:33:39;5.80;;;3.75;;
57778;SDS011;43608;49.486;9.640;2024-02-26T02:34:09;5.70;;;3.72;;
57778;SDS011;43608;49.486;9.640;2024-02-26T02:34:40;5.60;;;3.65;;
57778;SDS011;43608;49.486;9.640;2024-02-26T02:35:11;5.07;;;3.28;;
57778;SDS011;43608;49.486;9.640;2024-02-26T02:35:41;5.22;;;3.75;;
57778;SDS011;43608;49.486;9.640;2024-02-26T02:36:12;6.55;;;3.47;;
57778;SDS011;43608;49.486;9.640;2024-02-26T02:36:51;4.82;;;3.38;;
57778;SDS011;43608;49.486;9.640;2024-02-26T02:37:22;5.68;;;3.47;;
57778;SDS011;43608;49.486;9.640;2024-02-26T02:37:53;4.78;;;3.20;;
57778;SDS011;43608;49.486;9.640;2024-02-26T02:38:23;5.72;;;3.40;;
57778;SDS011;43608;49.486;9.640;2024-02-26T02:38:55;4.50;;;3.25;;
57778;SDS011;43608;49.486;9.640;2024-02-26T02:39:26;6.18;;;3.10;;
57778;SDS011;43608;49.486;9.640;2024-02-26T02:39:56;4.80;;;3.10;;
57778;SDS011;43608;49.486;9.640;2024-02-26T02:40:27;5.38;;;3.10;;
57778;SDS011;43608;49.486;9.640;2024-02-26T02:40:57;4.68;;;2.88;;
57778;SDS011;43608;49.486;9.640;2024-02-26T02:41:28;4.75;;;2.92;;
57778;SDS011;43608;49.486;9.640;2024-02-26T02:42:00;5.47;;;3.38;;
57778;SDS011;43608;49.486;9.640;2024-02-26T02:42:31;4.50;;;3.10;;
57778;SDS011;43608;49.486;9.640;2024-02-26T02:43:01;4.97;;;3.15;;
57778;SDS011;43608;49.486;9.640;2024-02-26T02:43:32;4.53;;;3.13;;
57778;SDS011;43608;49.486;9.640;2024-02-26T02:44:02;4.38;;;3.10;;
57778;SDS011;43608;49.486;9.640;2024-02-26T02:44:33;4.10;;;2.75;;
57778;SDS011;43608;49.486;9.640;2024-02-26T02:45:03;4.50;;;3.00;;
57778;SDS011;43608;49.486;9.640;2024-02-26T02:45:34;5.65;;;3.25;;
57778;SDS011;43608;49.486;9.640;2024-02-26T02:46:04;4.57;;;3.00;;
57778;SDS011;43608;49.486;9.640;2024-02-26T02:46:35;4.68;;;3.30;;
57778;SDS011;43608;49.486;9.640;2024-02-26T02:47:05;5.25;;;3.10;;
57778;SDS011;43608;49.486;9.640;2024-02-26T02:47:36;4.13;;;2.92;;
57778;SDS011;43608;49.486;9.640;2024-02-26T02:48:07;5.47;;;3.13;;
57778;SDS011;43608;49.486;9.640;2024-02-26T02:48:38;4.20;;;2.90;;
57778;SDS011;43608;49.486;9.640;2024-02-26T02:49:09;4.10;;;2.80;;
57778;SDS011;43608;49.486;9.640;2024-02-26T02:49:40;4.93;;;2.90;;
57778;SDS011;43608;49.486;9.640;2024-02-26T02:50:10;4.35;;;2.80;;
57778;SDS011;43608;49.486;9.640;2024-02-26T02:50:41;4.32;;;2.97;;
57778;SDS011;43608;49.486;9.640;2024-02-26T02:51:11;4.93;;;3.00;;
57778;SDS011;43608;49.486;9.640;2024-02-26T02:51:42;4.40;;;2.78;;
57778;SDS011;43608;49.486;9.640;2024-02-26T02:52:12;4.47;;;2.90;;
57778;SDS011;43608;49.486;9.640;2024-02-26T02:52:42;4.50;;;2.88;;
57778;SDS011;43608;49.486;9.640;2024-02-26T02:53:13;4.72;;;2.92;;
57778;SDS011;43608;49.486;9.640;2024-02-26T02:53:43;4.53;;;2.92;;
57778;SDS011;43608;49.486;9.640;2024-02-26T02:54:14;4.35;;;2.78;;
57778;SDS011;43608;49.486;9.640;2024-02-26T02:54:44;4.18;;;2.67;;
57778;SDS011;43608;49.486;9.640;2024-02-26T02:55:17;4.25;;;2.88;;
57778;SDS011;43608;49.486;9.640;2024-02-26T02:55:48;3.95;;;2.90;;
57778;SDS011;43608;49.486;9.640;2024-02-26T02:56:18;3.72;;;2.70;;
57778;SDS011;43608;49.486;9.640;2024-02-26T02:56:49;4.20;;;2.95;;
57778;SDS011;43608;49.486;9.640;2024-02-26T02:57:19;4.13;;;2.90;;
57778;SDS011;43608;49.486;9.640;2024-02-26T02:57:50;4.13;;;3.00;;
57778;SDS011;43608;49.486;9.640;2024-02-26T02:58:20;4.03;;;2.88;;
57778;SDS011;43608;49.486;9.640;2024-02-26T02:58:51;4.65;;;2.90;;
57778;SDS011;43608;49.486;9.640;2024-02-26T02:59:21;4.07;;;2.70;;
57778;SDS011;43608;49.486;9.640;2024-02-26T02:59:51;4.25;;;2.88;;
57778;SDS011;43608;49.486;9.640;2024-02-26T03:00:22;4.13;;;2.80;;
57778;SDS011;43608;49.486;9.640;2024-02-26T03:00:55;4.40;;;3.00;;
57778;SDS011;43608;49.486;9.640;2024-02-26T03:01:25;3.97;;;2.85;;
57778;SDS011;43608;49.486;9.640;2024-02-26T03:01:56;3.80;;;2.60;;
57778;SDS011;43608;49.486;9.640;2024-02-26T03:02:26;3.50;;;2.60;;
57778;SDS011;43608;49.486;9.640;2024-02-26T03:02:56;3.70;;;2.60;;
57778;SDS011;43608;49.486;9.640;2024-02-26T03:03:27;4.13;;;2.65;;
57778;SDS011;43608;49.486;9.640;2024-02-26T03:03:58;3.63;;;2.50;;
57778;SDS011;43608;49.486;9.640;2024-02-26T03:04:29;3.53;;;2.70;;
57778;SDS011;43608;49.486;9.640;2024-02-26T03:04:59;4.53;;;2.80;;
57778;SDS011;43608;49.486;9.640;2024-02-26T03:05:29;4.00;;;2.60;;